Historyczne dane pomiarowe

Dodano dane terminowe – wersja testowa.

Dane z okresu 1951-2019

Wersja bazy: 1.34 [2019-03-16, lista zmian], aktualizacja planowana na 2019-04-15

Dane meteo z obszaru Polski uzyskane na podstawie danych udostępnionych przez Instytut Meteorologii i Gospodarki Wodnej – Państwowy Instytut Badawczy.

 

Wybierz Datę:    

       

TemperaturaWilgotnośćWiatrCiśnienieOpadyŚniegCzas trwania zjawisk
 Stacja t tx tn tng RH VA  wxwx mslp ppp RRR   cm mm wxwxwxwxwxwxwx
1975-07-16 20.7 26.1 13.3 11.7 60.0- 2.7 6.3---- 0.0------------
1975-07-17 17.8 22.6 15.0 14.4 78.5- 5.7 2.3---- 2.6------------
1975-07-18 18.6 27.0 7.5 6.3 69.8- 5.3 1.7---- 12.3------------
1975-07-19 17.5 23.6 15.2 14.4 92.0- 8.0 0.7---- 7.8------------
1975-07-20 17.4 19.6 16.5 16.7 95.0- 8.0 2.0---- 12.9------------
1975-07-21 20.2 26.5 15.3 15.2 73.8- 5.0 3.3---- 2.5------------
1975-07-22 19.4 24.6 14.0 12.6 75.5- 4.7 1.7---- 0.0------------
1975-07-23 20.2 27.5 12.7 11.5 68.3- 5.3 2.7---- 0.0------------
1975-07-24 20.0 29.4 14.7 13.1 70.0- 5.0 2.3---- 0.5------------
1975-07-25 14.6 21.1 6.7 5.5 86.3- 5.7 2.3---- 8.5------------
1975-07-26 15.4 20.7 11.7 11.2 72.8- 3.7 5.0---- 0.0------------
1975-07-27 14.2 17.7 12.4 10.4 86.0- 8.0 5.0---- 27.7------------
1975-07-28 19.7 25.9 14.4 16.2 70.5- 3.7 5.0---- 0.0------------
1975-07-29 20.1 27.8 10.7 8.2 69.5- 0.7 4.0---- 0.0------------
1975-07-30 19.7 26.8 13.3 10.9 73.8- 4.0 2.0---- 0.0------------
1975-07-31 19.3 27.0 11.7 9.0 74.3- 3.7 1.7---- 0.0------------
1975-08-01 18.3 26.1 11.2 9.4 84.8- 7.7 1.7---- 10.9------------
1975-08-02 15.4 19.5 10.4 8.4 86.8- 8.0 2.3---- 0.3------------
1975-08-03 18.9 23.9 15.9 14.7 79.5- 5.3 3.7---- 0.0------------
1975-08-04 18.6 26.1 9.0 7.6 78.3- 5.0 1.3---- 0.0------------
1975-08-05 20.6 28.9 10.9 8.1 74.0- 2.0 1.7---- 0.0------------
1975-08-06 21.7 29.1 12.1 10.1 73.0- 2.0 2.3---- 0.0------------
1975-08-07 23.9 31.1 13.8 11.4 65.0- 1.0 2.0---- 0.0------------
1975-08-08 24.1 31.7 15.1 12.7 64.5- 0.7 2.0---- 0.0------------
1975-08-09 24.2 33.3 13.9 12.1 60.0- 0.3 1.7---- 0.0------------
1975-08-10 23.5 33.2 12.0 10.0 57.0- 0.7 2.3---- 0.0------------
1975-08-11 22.9 31.1 11.7 8.3 62.8- 0.0 1.7---- 0.0------------
1975-08-12 21.2 31.6 10.5 8.6 62.0- 1.7 3.7---- 0.0------------
1975-08-13 16.2 23.3 10.9 9.1 59.5- 0.0 2.7---- 0.0------------
1975-08-14 14.1 23.1 1.0 -0.4 63.3- 0.0 1.3---- 0.0------------
213.7 ms

 

Źródłem pochodzenia danych jest Instytut Meteorologii i Gospodarki Wodnej – Państwowy Instytut Badawczy. Dane Instytutu Meteorologii i Gospodarki Wodnej – Państwowego Instytutu Badawczego zostały przetworzone.

Dane źródłowe można odnaleźć na stronie https://dane.imgw.pl